sensor_id;sensor_type;location;lat;lon;timestamp;pressure;altitude;pressure_sealevel;temperature;humidity
65329;BME280;51941;52.210;5.158;2023-05-21T00:00:43;101929.13;;;15.48;92.38
65329;BME280;51941;52.210;5.158;2023-05-21T00:03:11;101918.91;;;15.45;92.69
65329;BME280;51941;52.210;5.158;2023-05-21T00:05:40;101922.16;;;15.47;93.37
65329;BME280;51941;52.210;5.158;2023-05-21T00:08:07;101920.22;;;15.43;93.82
65329;BME280;51941;52.210;5.158;2023-05-21T00:10:34;101913.56;;;15.45;94.53
65329;BME280;51941;52.210;5.158;2023-05-21T00:13:00;101923.91;;;15.42;95.18
65329;BME280;51941;52.210;5.158;2023-05-21T00:15:27;101920.31;;;15.36;95.54
65329;BME280;51941;52.210;5.158;2023-05-21T00:17:54;101916.75;;;15.31;96.27
65329;BME280;51941;52.210;5.158;2023-05-21T00:20:22;101918.97;;;15.34;96.99
65329;BME280;51941;52.210;5.158;2023-05-21T00:22:49;101911.41;;;15.31;97.30
65329;BME280;51941;52.210;5.158;2023-05-21T00:25:16;101904.94;;;15.27;97.76
65329;BME280;51941;52.210;5.158;2023-05-21T00:27:42;101907.59;;;15.27;98.32
65329;BME280;51941;52.210;5.158;2023-05-21T00:30:09;101911.06;;;15.27;98.71
65329;BME280;51941;52.210;5.158;2023-05-21T00:32:36;101913.72;;;15.27;98.86
65329;BME280;51941;52.210;5.158;2023-05-21T00:35:03;101906.00;;;15.26;99.40
65329;BME280;51941;52.210;5.158;2023-05-21T00:37:31;101911.56;;;15.24;99.36
65329;BME280;51941;52.210;5.158;2023-05-21T00:39:58;101907.25;;;15.23;99.71
65329;BME280;51941;52.210;5.158;2023-05-21T00:42:25;101909.94;;;15.23;100.00
65329;BME280;51941;52.210;5.158;2023-05-21T00:44:55;101913.63;;;15.22;100.00
65329;BME280;51941;52.210;5.158;2023-05-21T00:47:22;101905.63;;;15.22;100.00
65329;BME280;51941;52.210;5.158;2023-05-21T00:49:49;101915.94;;;15.18;100.00
65329;BME280;51941;52.210;5.158;2023-05-21T00:52:17;101898.13;;;15.07;100.00
65329;BME280;51941;52.210;5.158;2023-05-21T00:54:49;101903.09;;;15.15;100.00
65329;BME280;51941;52.210;5.158;2023-05-21T00:57:17;101901.56;;;15.19;100.00
65329;BME280;51941;52.210;5.158;2023-05-21T00:59:45;101891.16;;;15.18;100.00
65329;BME280;51941;52.210;5.158;2023-05-21T01:02:12;101889.78;;;15.15;100.00
65329;BME280;51941;52.210;5.158;2023-05-21T01:04:43;101886.06;;;15.16;100.00
65329;BME280;51941;52.210;5.158;2023-05-21T01:07:09;101885.25;;;15.16;100.00
65329;BME280;51941;52.210;5.158;2023-05-21T01:09:37;101885.69;;;15.13;100.00
65329;BME280;51941;52.210;5.158;2023-05-21T01:12:07;101885.94;;;15.11;100.00
65329;BME280;51941;52.210;5.158;2023-05-21T01:14:35;101888.59;;;15.11;100.00
65329;BME280;51941;52.210;5.158;2023-05-21T01:17:04;101873.91;;;15.09;100.00
65329;BME280;51941;52.210;5.158;2023-05-21T01:19:34;101881.09;;;15.08;100.00
65329;BME280;51941;52.210;5.158;2023-05-21T01:22:04;101885.25;;;15.04;100.00
65329;BME280;51941;52.210;5.158;2023-05-21T01:24:33;101876.31;;;15.10;100.00
65329;BME280;51941;52.210;5.158;2023-05-21T01:27:04;101872.16;;;15.03;100.00
65329;BME280;51941;52.210;5.158;2023-05-21T01:29:32;101870.53;;;15.02;100.00
65329;BME280;51941;52.210;5.158;2023-05-21T01:32:03;101872.97;;;15.03;100.00
65329;BME280;51941;52.210;5.158;2023-05-21T01:34:39;101870.53;;;15.02;100.00
65329;BME280;51941;52.210;5.158;2023-05-21T01:37:13;101880.97;;;15.03;100.00
65329;BME280;51941;52.210;5.158;2023-05-21T01:39:48;101875.06;;;15.01;100.00
65329;BME280;51941;52.210;5.158;2023-05-21T01:42:18;101882.94;;;14.96;100.00
65329;BME280;51941;52.210;5.158;2023-05-21T01:44:48;101881.91;;;14.97;100.00
65329;BME280;51941;52.210;5.158;2023-05-21T01:47:17;101872.28;;;14.96;100.00
65329;BME280;51941;52.210;5.158;2023-05-21T01:49:47;101878.56;;;14.90;100.00
65329;BME280;51941;52.210;5.158;2023-05-21T01:52:14;101876.13;;;14.89;100.00
65329;BME280;51941;52.210;5.158;2023-05-21T01:54:41;101869.53;;;14.91;100.00
65329;BME280;51941;52.210;5.158;2023-05-21T01:57:08;101871.94;;;14.93;100.00
65329;BME280;51941;52.210;5.158;2023-05-21T01:59:35;101868.94;;;14.89;100.00
65329;BME280;51941;52.210;5.158;2023-05-21T02:02:03;101864.06;;;14.86;100.00
65329;BME280;51941;52.210;5.158;2023-05-21T02:04:30;101870.56;;;14.90;100.00
65329;BME280;51941;52.210;5.158;2023-05-21T02:06:56;101872.56;;;14.83;100.00
65329;BME280;51941;52.210;5.158;2023-05-21T02:09:23;101864.44;;;14.90;100.00
65329;BME280;51941;52.210;5.158;2023-05-21T02:11:50;101873.22;;;14.90;100.00
65329;BME280;51941;52.210;5.158;2023-05-21T02:14:18;101873.22;;;14.90;100.00
65329;BME280;51941;52.210;5.158;2023-05-21T02:16:45;101874.84;;;14.91;100.00
65329;BME280;51941;52.210;5.158;2023-05-21T02:19:12;101867.69;;;14.92;100.00
65329;BME280;51941;52.210;5.158;2023-05-21T02:21:39;101867.31;;;14.88;100.00
65329;BME280;51941;52.210;5.158;2023-05-21T02:24:05;101872.41;;;14.90;100.00
65329;BME280;51941;52.210;5.158;2023-05-21T02:26:32;101866.28;;;14.89;100.00
65329;BME280;51941;52.210;5.158;2023-05-21T02:28:59;101869.16;;;14.88;100.00
65329;BME280;51941;52.210;5.158;2023-05-21T02:31:27;101865.34;;;14.84;100.00
65329;BME280;51941;52.210;5.158;2023-05-21T02:33:54;101859.91;;;14.78;100.00
65329;BME280;51941;52.210;5.158;2023-05-21T02:36:21;101861.06;;;14.83;100.00
65329;BME280;51941;52.210;5.158;2023-05-21T02:38:49;101859.44;;;14.82;100.00
65329;BME280;51941;52.210;5.158;2023-05-21T02:41:16;101859.78;;;14.85;100.00
65329;BME280;51941;52.210;5.158;2023-05-21T02:43:43;101864.06;;;14.86;100.00
65329;BME280;51941;52.210;5.158;2023-05-21T02:46:09;101865.81;;;14.80;100.00
65329;BME280;51941;52.210;5.158;2023-05-21T02:48:37;101864.56;;;14.83;100.00
65329;BME280;51941;52.210;5.158;2023-05-21T02:51:04;101863.50;;;14.84;100.00
65329;BME280;51941;52.210;5.158;2023-05-21T02:53:31;101865.34;;;14.84;100.00
65329;BME280;51941;52.210;5.158;2023-05-21T02:55:58;101868.81;;;14.84;100.00
65329;BME280;51941;52.210;5.158;2023-05-21T02:58:24;101869.53;;;14.79;100.00
65329;BME280;51941;52.210;5.158;2023-05-21T03:00:51;101869.41;;;14.86;100.00
65329;BME280;51941;52.210;5.158;2023-05-21T03:03:18;101867.69;;;14.80;100.00
65329;BME280;51941;52.210;5.158;2023-05-21T03:05:47;101868.72;;;14.79;100.00
65329;BME280;51941;52.210;5.158;2023-05-21T03:08:13;101867.22;;;14.71;100.00
65329;BME280;51941;52.210;5.158;2023-05-21T03:10:41;101861.41;;;14.74;100.00
65329;BME280;51941;52.210;5.158;2023-05-21T03:13:08;101865.69;;;14.75;100.00
65329;BME280;51941;52.210;5.158;2023-05-21T03:15:34;101854.47;;;14.73;100.00
65329;BME280;51941;52.210;5.158;2023-05-21T03:18:03;101853.91;;;14.71;100.00
65329;BME280;51941;52.210;5.158;2023-05-21T03:20:29;101852.50;;;14.69;100.00
65329;BME280;51941;52.210;5.158;2023-05-21T03:22:58;101853.75;;;14.66;100.00
65329;BME280;51941;52.210;5.158;2023-05-21T03:25:28;101855.16;;;14.69;100.00
65329;BME280;51941;52.210;5.158;2023-05-21T03:27:55;101852.84;;;14.61;100.00
65329;BME280;51941;52.210;5.158;2023-05-21T03:30:40;101848.44;;;14.66;100.00
65329;BME280;51941;52.210;5.158;2023-05-21T03:33:33;101846.59;;;14.67;100.00
65329;BME280;51941;52.210;5.158;2023-05-21T03:36:06;101842.56;;;14.64;100.00
65329;BME280;51941;52.210;5.158;2023-05-21T03:38:37;101847.06;;;14.64;100.00
65329;BME280;51941;52.210;5.158;2023-05-21T03:41:04;101847.28;;;14.62;100.00
65329;BME280;51941;52.210;5.158;2023-05-21T03:43:31;101848.56;;;14.60;100.00
65329;BME280;51941;52.210;5.158;2023-05-21T03:45:58;101842.31;;;14.54;100.00
65329;BME280;51941;52.210;5.158;2023-05-21T03:48:47;101844.50;;;14.57;100.00
65329;BME280;51941;52.210;5.158;2023-05-21T03:51:15;101845.63;;;14.50;100.00
65329;BME280;51941;52.210;5.158;2023-05-21T03:53:46;101850.16;;;14.49;100.00
65329;BME280;51941;52.210;5.158;2023-05-21T03:56:12;101841.34;;;14.49;100.00
65329;BME280;51941;52.210;5.158;2023-05-21T03:58:40;101844.59;;;14.51;100.00
65329;BME280;51941;52.210;5.158;2023-05-21T04:01:07;101836.75;;;14.56;100.00
65329;BME280;51941;52.210;5.158;2023-05-21T04:03:36;101835.47;;;14.47;100.00
65329;BME280;51941;52.210;5.158;2023-05-21T04:06:03;101842.50;;;14.41;100.00
65329;BME280;51941;52.210;5.158;2023-05-21T04:08:31;101839.97;;;14.34;100.00
65329;BME280;51941;52.210;5.158;2023-05-21T04:10:59;101844.50;;;14.46;100.00
65329;BME280;51941;52.210;5.158;2023-05-21T04:13:26;101838.13;;;14.47;100.00
65329;BME280;51941;52.210;5.158;2023-05-21T04:15:52;101841.81;;;14.46;100.00
65329;BME280;51941;52.210;5.158;2023-05-21T04:18:20;101835.19;;;14.48;100.00
65329;BME280;51941;52.210;5.158;2023-05-21T04:20:48;101843.56;;;14.52;100.00
65329;BME280;51941;52.210;5.158;2023-05-21T04:23:15;101851.44;;;14.47;100.00
65329;BME280;51941;52.210;5.158;2023-05-21T04:25:42;101845.97;;;14.41;100.00
65329;BME280;51941;52.210;5.158;2023-05-21T04:28:10;101843.91;;;14.43;100.00
65329;BME280;51941;52.210;5.158;2023-05-21T04:30:37;101843.69;;;14.45;100.00
65329;BME280;51941;52.210;5.158;2023-05-21T04:33:03;101845.31;;;14.46;100.00
65329;BME280;51941;52.210;5.158;2023-05-21T04:35:33;101842.63;;;14.46;100.00
65329;BME280;51941;52.210;5.158;2023-05-21T04:38:00;101842.41;;;14.48;100.00
65329;BME280;51941;52.210;5.158;2023-05-21T04:40:26;101845.75;;;14.43;100.00
65329;BME280;51941;52.210;5.158;2023-05-21T04:42:54;101850.03;;;14.44;100.00
65329;BME280;51941;52.210;5.158;2023-05-21T04:45:24;101855.97;;;14.46;100.00
65329;BME280;51941;52.210;5.158;2023-05-21T04:47:52;101855.47;;;14.49;100.00
65329;BME280;51941;52.210;5.158;2023-05-21T04:50:18;101856.06;;;14.51;100.00
65329;BME280;51941;52.210;5.158;2023-05-21T04:52:47;101855.47;;;14.49;100.00
65329;BME280;51941;52.210;5.158;2023-05-21T04:55:14;101866.50;;;14.53;100.00
65329;BME280;51941;52.210;5.158;2023-05-21T04:57:43;101853.41;;;14.51;100.00
65329;BME280;51941;52.210;5.158;2023-05-21T05:00:11;101854.66;;;14.49;100.00
65329;BME280;51941;52.210;5.158;2023-05-21T05:02:42;101855.47;;;14.49;100.00
65329;BME280;51941;52.210;5.158;2023-05-21T05:05:09;101852.00;;;14.49;100.00
65329;BME280;51941;52.210;5.158;2023-05-21T05:07:36;101847.16;;;14.46;100.00
65329;BME280;51941;52.210;5.158;2023-05-21T05:10:03;101856.28;;;14.50;100.00
65329;BME280;51941;52.210;5.158;2023-05-21T05:12:31;101862.31;;;14.45;100.00
65329;BME280;51941;52.210;5.158;2023-05-21T05:14:58;101853.78;;;14.55;100.00
65329;BME280;51941;52.210;5.158;2023-05-21T05:17:26;101851.78;;;14.50;100.00
65329;BME280;51941;52.210;5.158;2023-05-21T05:19:54;101851.78;;;14.50;100.00
65329;BME280;51941;52.210;5.158;2023-05-21T05:22:20;101840.31;;;14.38;100.00
65329;BME280;51941;52.210;5.158;2023-05-21T05:24:47;101857.50;;;14.54;100.00
65329;BME280;51941;52.210;5.158;2023-05-21T05:27:14;101859.31;;;14.53;100.00
65329;BME280;51941;52.210;5.158;2023-05-21T05:29:42;101851.47;;;14.58;100.00
65329;BME280;51941;52.210;5.158;2023-05-21T05:32:09;101854.59;;;14.55;100.00
65329;BME280;51941;52.210;5.158;2023-05-21T05:34:36;101853.31;;;14.58;100.00
65329;BME280;51941;52.210;5.158;2023-05-21T05:37:05;101849.97;;;14.62;100.00
65329;BME280;51941;52.210;5.158;2023-05-21T05:39:32;101845.31;;;14.69;100.00
65329;BME280;51941;52.210;5.158;2023-05-21T05:41:59;101855.63;;;14.66;100.00
65329;BME280;51941;52.210;5.158;2023-05-21T05:44:26;101856.69;;;14.65;100.00
65329;BME280;51941;52.210;5.158;2023-05-21T05:46:52;101849.03;;;14.68;100.00
65329;BME280;51941;52.210;5.158;2023-05-21T05:49:19;101859.91;;;14.67;100.00
65329;BME280;51941;52.210;5.158;2023-05-21T05:51:46;101856.34;;;14.61;100.00
65329;BME280;51941;52.210;5.158;2023-05-21T05:54:14;101839.63;;;14.66;100.00
65329;BME280;51941;52.210;5.158;2023-05-21T05:56:41;101847.97;;;14.81;100.00
65329;BME280;51941;52.210;5.158;2023-05-21T05:59:08;101846.47;;;14.73;100.00
65329;BME280;51941;52.210;5.158;2023-05-21T06:01:37;101846.94;;;14.70;100.00
65329;BME280;51941;52.210;5.158;2023-05-21T06:04:05;101839.63;;;14.89;100.00
65329;BME280;51941;52.210;5.158;2023-05-21T06:06:31;101837.19;;;14.88;100.00
65329;BME280;51941;52.210;5.158;2023-05-21T06:08:59;101833.78;;;14.92;100.00
65329;BME280;51941;52.210;5.158;2023-05-21T06:11:27;101844.47;;;14.92;100.00
65329;BME280;51941;52.210;5.158;2023-05-21T06:13:54;101825.47;;;15.00;100.00
65329;BME280;51941;52.210;5.158;2023-05-21T06:16:21;101837.03;;;15.06;100.00
65329;BME280;51941;52.210;5.158;2023-05-21T06:18:47;101836.34;;;14.99;100.00
65329;BME280;51941;52.210;5.158;2023-05-21T06:21:14;101832.09;;;14.86;100.00
65329;BME280;51941;52.210;5.158;2023-05-21T06:23:41;101831.03;;;14.99;100.00
65329;BME280;51941;52.210;5.158;2023-05-21T06:26:08;101829.03;;;15.06;100.00
65329;BME280;51941;52.210;5.158;2023-05-21T06:28:36;101831.94;;;15.04;100.00
65329;BME280;51941;52.210;5.158;2023-05-21T06:31:04;101838.28;;;15.15;100.00
65329;BME280;51941;52.210;5.158;2023-05-21T06:33:34;101834.19;;;15.24;100.00
65329;BME280;51941;52.210;5.158;2023-05-21T06:36:01;101829.19;;;15.28;100.00
65329;BME280;51941;52.210;5.158;2023-05-21T06:38:28;101837.38;;;15.38;100.00
65329;BME280;51941;52.210;5.158;2023-05-21T06:40:55;101831.66;;;15.46;100.00
65329;BME280;51941;52.210;5.158;2023-05-21T06:43:49;101825.72;;;15.55;100.00
65329;BME280;51941;52.210;5.158;2023-05-21T06:46:34;101831.91;;;15.73;100.00
65329;BME280;51941;52.210;5.158;2023-05-21T06:49:05;101835.53;;;15.95;100.00
65329;BME280;51941;52.210;5.158;2023-05-21T06:51:33;101834.88;;;16.05;100.00
65329;BME280;51941;52.210;5.158;2023-05-21T06:54:02;101833.66;;;16.12;100.00
65329;BME280;51941;52.210;5.158;2023-05-21T06:56:29;101833.31;;;16.09;100.00
65329;BME280;51941;52.210;5.158;2023-05-21T06:58:57;101828.72;;;16.21;100.00
65329;BME280;51941;52.210;5.158;2023-05-21T07:01:24;101826.56;;;16.56;100.00
65329;BME280;51941;52.210;5.158;2023-05-21T07:03:51;101831.03;;;16.89;100.00
65329;BME280;51941;52.210;5.158;2023-05-21T07:06:18;101829.03;;;17.23;100.00
65329;BME280;51941;52.210;5.158;2023-05-21T07:08:45;101822.47;;;17.58;100.00
65329;BME280;51941;52.210;5.158;2023-05-21T07:11:13;101822.63;;;18.05;99.38
65329;BME280;51941;52.210;5.158;2023-05-21T07:13:40;101821.13;;;18.56;96.32
65329;BME280;51941;52.210;5.158;2023-05-21T07:16:08;101827.63;;;18.70;93.61
65329;BME280;51941;52.210;5.158;2023-05-21T07:18:36;101832.22;;;18.70;92.74
65329;BME280;51941;52.210;5.158;2023-05-21T07:21:03;101830.75;;;19.04;90.98
65329;BME280;51941;52.210;5.158;2023-05-21T07:23:29;101829.56;;;19.57;87.05
65329;BME280;51941;52.210;5.158;2023-05-21T07:25:56;101824.22;;;19.57;83.28
65329;BME280;51941;52.210;5.158;2023-05-21T07:28:23;101836.59;;;19.84;83.45
65329;BME280;51941;52.210;5.158;2023-05-21T07:30:50;101826.88;;;20.03;79.96
65329;BME280;51941;52.210;5.158;2023-05-21T07:33:22;101836.03;;;20.07;80.33
65329;BME280;51941;52.210;5.158;2023-05-21T07:35:50;101830.94;;;19.80;80.73
65329;BME280;51941;52.210;5.158;2023-05-21T07:38:17;101830.09;;;19.70;79.79
65329;BME280;51941;52.210;5.158;2023-05-21T07:40:44;101826.59;;;19.49;80.34
65329;BME280;51941;52.210;5.158;2023-05-21T07:43:11;101835.63;;;19.22;81.27
65329;BME280;51941;52.210;5.158;2023-05-21T07:45:39;101830.19;;;19.02;83.62
65329;BME280;51941;52.210;5.158;2023-05-21T07:48:06;101818.59;;;18.91;84.80
65329;BME280;51941;52.210;5.158;2023-05-21T07:50:37;101817.19;;;18.74;86.25
65329;BME280;51941;52.210;5.158;2023-05-21T07:53:04;101816.19;;;18.43;88.57
65329;BME280;51941;52.210;5.158;2023-05-21T07:55:31;101821.97;;;18.67;87.00
65329;BME280;51941;52.210;5.158;2023-05-21T07:57:58;101824.13;;;18.65;87.22
65329;BME280;51941;52.210;5.158;2023-05-21T08:00:28;101817.06;;;18.53;88.18
65329;BME280;51941;52.210;5.158;2023-05-21T08:02:56;101821.38;;;18.54;88.52
65329;BME280;51941;52.210;5.158;2023-05-21T08:05:24;101819.88;;;18.74;87.05
65329;BME280;51941;52.210;5.158;2023-05-21T08:07:52;101821.19;;;18.71;87.08
65329;BME280;51941;52.210;5.158;2023-05-21T08:10:20;101817.25;;;18.84;86.15
65329;BME280;51941;52.210;5.158;2023-05-21T08:12:49;101821.78;;;18.83;85.35
65329;BME280;51941;52.210;5.158;2023-05-21T08:15:16;101811.88;;;18.89;84.45
65329;BME280;51941;52.210;5.158;2023-05-21T08:17:44;101818.78;;;18.70;87.02
65329;BME280;51941;52.210;5.158;2023-05-21T08:20:11;101820.81;;;19.05;83.98
65329;BME280;51941;52.210;5.158;2023-05-21T08:22:38;101838.81;;;19.09;83.64
65329;BME280;51941;52.210;5.158;2023-05-21T08:25:08;101837.09;;;18.83;83.60
65329;BME280;51941;52.210;5.158;2023-05-21T08:27:35;101819.63;;;18.80;84.64
65329;BME280;51941;52.210;5.158;2023-05-21T08:30:03;101823.19;;;18.96;84.90
65329;BME280;51941;52.210;5.158;2023-05-21T08:32:30;101816.81;;;19.17;83.68
65329;BME280;51941;52.210;5.158;2023-05-21T08:34:57;101806.38;;;19.21;82.03
65329;BME280;51941;52.210;5.158;2023-05-21T08:37:49;101809.31;;;19.24;82.69
65329;BME280;51941;52.210;5.158;2023-05-21T08:40:25;101821.22;;;19.39;81.73
65329;BME280;51941;52.210;5.158;2023-05-21T08:42:51;101812.09;;;19.40;81.30
65329;BME280;51941;52.210;5.158;2023-05-21T08:45:25;101811.81;;;19.36;82.95
65329;BME280;51941;52.210;5.158;2023-05-21T08:47:54;101814.50;;;19.51;80.06
65329;BME280;51941;52.210;5.158;2023-05-21T08:50:25;101819.34;;;19.54;79.83
65329;BME280;51941;52.210;5.158;2023-05-21T08:52:54;101818.72;;;19.32;80.85
65329;BME280;51941;52.210;5.158;2023-05-21T08:55:24;101839.94;;;19.34;81.65
65329;BME280;51941;52.210;5.158;2023-05-21T08:57:53;101813.88;;;19.19;81.47
65329;BME280;51941;52.210;5.158;2023-05-21T09:00:23;101824.91;;;19.22;81.20
65329;BME280;51941;52.210;5.158;2023-05-21T09:02:52;101809.78;;;18.96;82.55
65329;BME280;51941;52.210;5.158;2023-05-21T09:05:21;101807.56;;;18.83;84.53
65329;BME280;51941;52.210;5.158;2023-05-21T09:07:54;101813.81;;;18.99;85.58
65329;BME280;51941;52.210;5.158;2023-05-21T09:10:51;101815.16;;;19.06;83.48
65329;BME280;51941;52.210;5.158;2023-05-21T09:13:24;101803.63;;;19.01;84.05
65329;BME280;51941;52.210;5.158;2023-05-21T09:15:52;101810.03;;;18.95;83.76
65329;BME280;51941;52.210;5.158;2023-05-21T09:18:21;101797.41;;;18.85;85.22
65329;BME280;51941;52.210;5.158;2023-05-21T09:20:55;101804.09;;;18.82;86.56
65329;BME280;51941;52.210;5.158;2023-05-21T09:23:27;101807.09;;;18.96;88.63
65329;BME280;51941;52.210;5.158;2023-05-21T09:25:56;101804.16;;;19.03;89.17
65329;BME280;51941;52.210;5.158;2023-05-21T09:28:29;101814.09;;;19.07;89.98
65329;BME280;51941;52.210;5.158;2023-05-21T09:31:02;101807.44;;;19.25;89.58
65329;BME280;51941;52.210;5.158;2023-05-21T09:33:28;101801.09;;;19.46;87.90
65329;BME280;51941;52.210;5.158;2023-05-21T09:35:56;101802.97;;;19.51;87.27
65329;BME280;51941;52.210;5.158;2023-05-21T09:38:25;101808.84;;;19.38;87.75
65329;BME280;51941;52.210;5.158;2023-05-21T09:40:54;101807.25;;;19.42;86.65
65329;BME280;51941;52.210;5.158;2023-05-21T09:43:23;101798.63;;;19.29;87.68
65329;BME280;51941;52.210;5.158;2023-05-21T09:45:52;101798.91;;;19.43;86.10
65329;BME280;51941;52.210;5.158;2023-05-21T09:48:32;101785.75;;;19.37;86.73
65329;BME280;51941;52.210;5.158;2023-05-21T09:51:11;101789.25;;;19.37;87.30
65329;BME280;51941;52.210;5.158;2023-05-21T09:53:48;101796.50;;;19.42;87.75
65329;BME280;51941;52.210;5.158;2023-05-21T09:56:17;101785.22;;;19.50;87.40
65329;BME280;51941;52.210;5.158;2023-05-21T09:58:50;101787.09;;;19.49;86.80
65329;BME280;51941;52.210;5.158;2023-05-21T10:01:19;101786.22;;;19.23;87.86
65329;BME280;51941;52.210;5.158;2023-05-21T10:03:49;101786.81;;;19.31;88.29
65329;BME280;51941;52.210;5.158;2023-05-21T10:06:19;101773.91;;;19.27;87.92
65329;BME280;51941;52.210;5.158;2023-05-21T10:08:47;101776.31;;;19.19;89.02
65329;BME280;51941;52.210;5.158;2023-05-21T10:11:18;101783.81;;;19.17;89.67
65329;BME280;51941;52.210;5.158;2023-05-21T10:13:51;101772.22;;;18.96;90.48
65329;BME280;51941;52.210;5.158;2023-05-21T10:16:20;101765.00;;;19.02;90.98
65329;BME280;51941;52.210;5.158;2023-05-21T10:18:48;101775.19;;;19.05;91.63
65329;BME280;51941;52.210;5.158;2023-05-21T10:21:19;101773.88;;;19.12;91.52
65329;BME280;51941;52.210;5.158;2023-05-21T10:23:47;101773.38;;;19.31;91.48
65329;BME280;51941;52.210;5.158;2023-05-21T10:26:14;101788.41;;;19.21;89.73
65329;BME280;51941;52.210;5.158;2023-05-21T10:28:42;101771.19;;;19.17;90.40
65329;BME280;51941;52.210;5.158;2023-05-21T10:31:11;101790.78;;;19.23;90.04
65329;BME280;51941;52.210;5.158;2023-05-21T10:33:40;101784.34;;;19.14;90.04
65329;BME280;51941;52.210;5.158;2023-05-21T10:36:07;101758.88;;;19.21;89.69
65329;BME280;51941;52.210;5.158;2023-05-21T10:38:35;101776.31;;;19.29;90.06
65329;BME280;51941;52.210;5.158;2023-05-21T10:41:03;101769.59;;;19.26;90.17
65329;BME280;51941;52.210;5.158;2023-05-21T10:43:43;101771.22;;;19.33;90.41
65329;BME280;51941;52.210;5.158;2023-05-21T10:49:48;101754.09;;;19.64;88.61
65329;BME280;51941;52.210;5.158;2023-05-21T10:52:31;101757.03;;;19.78;87.73
65329;BME280;51941;52.210;5.158;2023-05-21T10:55:10;101749.53;;;19.80;86.36
65329;BME280;51941;52.210;5.158;2023-05-21T10:57:56;101759.19;;;19.86;86.12
65329;BME280;51941;52.210;5.158;2023-05-21T11:00:30;101767.75;;;20.03;85.44
65329;BME280;51941;52.210;5.158;2023-05-21T11:02:57;101753.25;;;19.94;84.93
65329;BME280;51941;52.210;5.158;2023-05-21T11:05:50;101752.75;;;19.87;85.42
65329;BME280;51941;52.210;5.158;2023-05-21T11:08:21;101763.75;;;19.90;85.59
65329;BME280;51941;52.210;5.158;2023-05-21T11:10:51;101750.06;;;19.72;86.38
65329;BME280;51941;52.210;5.158;2023-05-21T11:13:19;101741.19;;;19.76;87.00
65329;BME280;51941;52.210;5.158;2023-05-21T11:16:03;101748.19;;;19.72;87.19
65329;BME280;51941;52.210;5.158;2023-05-21T11:18:59;101753.53;;;19.87;86.48
65329;BME280;51941;52.210;5.158;2023-05-21T11:21:33;101737.44;;;19.82;85.97
65329;BME280;51941;52.210;5.158;2023-05-21T11:24:03;101746.56;;;19.86;86.59
65329;BME280;51941;52.210;5.158;2023-05-21T11:29:38;101733.91;;;20.07;86.03
65329;BME280;51941;52.210;5.158;2023-05-21T11:32:07;101743.31;;;19.94;85.50
65329;BME280;51941;52.210;5.158;2023-05-21T11:34:39;101740.91;;;19.88;86.00
65329;BME280;51941;52.210;5.158;2023-05-21T11:37:27;101724.00;;;19.67;86.51
65329;BME280;51941;52.210;5.158;2023-05-21T11:42:41;101735.03;;;19.55;87.39
65329;BME280;51941;52.210;5.158;2023-05-21T11:45:09;101717.28;;;19.59;87.49
65329;BME280;51941;52.210;5.158;2023-05-21T11:47:35;101739.88;;;19.74;87.85
65329;BME280;51941;52.210;5.158;2023-05-21T11:50:04;101714.88;;;19.68;87.09
65329;BME280;51941;52.210;5.158;2023-05-21T11:52:33;101720.22;;;19.78;86.99
65329;BME280;51941;52.210;5.158;2023-05-21T11:55:00;101736.91;;;19.75;86.02
65329;BME280;51941;52.210;5.158;2023-05-21T11:57:30;101718.63;;;19.87;86.05
65329;BME280;51941;52.210;5.158;2023-05-21T11:59:57;101717.00;;;19.91;85.39
65329;BME280;51941;52.210;5.158;2023-05-21T12:02:26;101706.50;;;20.00;85.87
65329;BME280;51941;52.210;5.158;2023-05-21T12:04:53;101722.31;;;20.12;84.96
65329;BME280;51941;52.210;5.158;2023-05-21T12:07:25;101704.59;;;20.11;83.57
65329;BME280;51941;52.210;5.158;2023-05-21T12:09:55;101690.94;;;20.02;84.26
65329;BME280;51941;52.210;5.158;2023-05-21T12:12:24;101698.44;;;20.00;85.46
65329;BME280;51941;52.210;5.158;2023-05-21T12:14:52;101698.47;;;19.80;85.54
65329;BME280;51941;52.210;5.158;2023-05-21T12:17:20;101688.56;;;19.65;86.21
65329;BME280;51941;52.210;5.158;2023-05-21T12:19:49;101693.13;;;19.49;87.42
65329;BME280;51941;52.210;5.158;2023-05-21T12:22:16;101696.63;;;19.50;87.74
65329;BME280;51941;52.210;5.158;2023-05-21T12:24:45;101685.59;;;19.41;87.81
65329;BME280;51941;52.210;5.158;2023-05-21T12:27:14;101706.53;;;19.59;88.18
65329;BME280;51941;52.210;5.158;2023-05-21T12:29:42;101696.63;;;19.65;87.74
65329;BME280;51941;52.210;5.158;2023-05-21T12:32:11;101696.09;;;19.63;87.62
65329;BME280;51941;52.210;5.158;2023-05-21T12:34:39;101697.97;;;19.62;87.37
65329;BME280;51941;52.210;5.158;2023-05-21T12:37:06;101691.78;;;19.62;87.67
65329;BME280;51941;52.210;5.158;2023-05-21T12:39:37;101690.19;;;19.56;88.17
65329;BME280;51941;52.210;5.158;2023-05-21T12:42:04;101685.34;;;19.48;89.64
65329;BME280;51941;52.210;5.158;2023-05-21T12:44:33;101689.88;;;19.67;89.25
65329;BME280;51941;52.210;5.158;2023-05-21T12:47:00;101675.69;;;19.57;88.94
65329;BME280;51941;52.210;5.158;2023-05-21T12:49:31;101682.91;;;19.61;89.71
65329;BME280;51941;52.210;5.158;2023-05-21T12:52:00;101684.81;;;19.66;90.45
65329;BME280;51941;52.210;5.158;2023-05-21T12:54:29;101686.13;;;19.74;90.05
65329;BME280;51941;52.210;5.158;2023-05-21T12:56:55;101686.69;;;19.76;89.93
65329;BME280;51941;52.210;5.158;2023-05-21T12:59:22;101686.41;;;19.82;90.70
65329;BME280;51941;52.210;5.158;2023-05-21T13:01:52;101693.13;;;19.75;89.53
65329;BME280;51941;52.210;5.158;2023-05-21T13:04:19;101684.53;;;19.73;89.88